createdAt,value
2022-12-01T00:01:07.923Z,100503.56
2022-12-01T00:06:18.700Z,100504.09
2022-12-01T00:11:20.307Z,100496.66
2022-12-01T00:16:22.192Z,100487.22
2022-12-01T00:21:25.096Z,100476.28
2022-12-01T00:26:27.406Z,100487.31
2022-12-01T00:31:29.033Z,100490.09
2022-12-01T00:36:30.625Z,100499.34
2022-12-01T00:41:32.195Z,100507.53
2022-12-01T00:46:33.905Z,100500.72
2022-12-01T00:51:35.573Z,100497.44
2022-12-01T00:56:37.163Z,100505.72
2022-12-01T01:01:39.040Z,100520.28
2022-12-01T01:06:43.348Z,100511.06
2022-12-01T01:11:44.963Z,100534.63
2022-12-01T01:16:46.660Z,100528.59
2022-12-01T01:21:48.289Z,100538.47
2022-12-01T01:26:50.002Z,100533.78
2022-12-01T01:31:51.555Z,100529.53
2022-12-01T01:36:53.085Z,100545.31
2022-12-01T01:41:54.682Z,100548.19
2022-12-01T01:46:56.540Z,100560.34
2022-12-01T01:51:58.702Z,100569.28
2022-12-01T01:57:01.294Z,100555.75
2022-12-01T02:02:06.753Z,100549.56
2022-12-01T02:07:09.233Z,100546.63
2022-12-01T02:12:29.505Z,100561.06
2022-12-01T02:17:55.730Z,100557.72
2022-12-01T02:23:12.354Z,100555.91
2022-12-01T02:28:41.580Z,100547.44
2022-12-01T02:33:57.815Z,100546.94
2022-12-01T02:39:06.392Z,100546.69
2022-12-01T02:44:27.650Z,100536.25
2022-12-01T02:49:34.868Z,100536.16
2022-12-01T02:54:37.518Z,100526.88
2022-12-01T02:59:42.503Z,100536.50
2022-12-01T03:05:05.370Z,100541.44
2022-12-01T03:10:55.832Z,100555.38
2022-12-01T03:15:57.448Z,100525.00
2022-12-01T03:21:10.656Z,100529.91
2022-12-01T03:26:17.280Z,100537.44
2022-12-01T03:31:22.859Z,100535.59
2022-12-01T03:36:45.719Z,100527.19
2022-12-01T03:41:57.519Z,100526.06
2022-12-01T03:47:07.988Z,100555.59
2022-12-01T03:52:20.048Z,100540.72
2022-12-01T03:57:29.275Z,100544.44
2022-12-01T04:02:31.093Z,100533.16
2022-12-01T04:07:32.781Z,100549.84
2022-12-01T04:12:34.748Z,100544.94
2022-12-01T04:17:36.475Z,100527.56
2022-12-01T04:22:38.343Z,100526.66
2022-12-01T04:27:40.283Z,100564.19
2022-12-01T04:32:43.405Z,100557.59
2022-12-01T04:37:45.058Z,100562.03
2022-12-01T04:42:46.639Z,100582.31
2022-12-01T04:47:48.179Z,100558.44
2022-12-01T04:52:49.876Z,100529.53
2022-12-01T04:57:52.066Z,100565.97
2022-12-01T05:05:12.699Z,100538.84
2022-12-01T05:10:14.431Z,100528.81
2022-12-01T05:15:16.726Z,100531.25
2022-12-01T05:20:39.615Z,100520.81
2022-12-01T05:25:42.511Z,100518.16
2022-12-01T05:30:44.261Z,100549.69
2022-12-01T05:35:47.356Z,100539.66
2022-12-01T05:40:55.445Z,100550.34
2022-12-01T05:45:57.787Z,100527.94
2022-12-01T05:50:59.617Z,100514.13
2022-12-01T05:56:01.286Z,100525.09
2022-12-01T06:01:03.736Z,100524.06
2022-12-01T06:06:05.570Z,100537.66
2022-12-01T06:11:07.246Z,100534.56
2022-12-01T06:16:08.986Z,100523.72
2022-12-01T06:21:10.609Z,100546.50
2022-12-01T06:26:12.262Z,100551.72
2022-12-01T06:31:13.934Z,100552.31
2022-12-01T06:36:15.639Z,100527.41
2022-12-01T06:41:17.274Z,100561.19
2022-12-01T06:46:19.101Z,100543.06
2022-12-01T06:51:20.971Z,100550.66
2022-12-01T06:56:23.299Z,100560.06
2022-12-01T07:01:25.457Z,100589.88
2022-12-01T07:06:29.154Z,100596.28
2022-12-01T07:11:32.285Z,100586.03
2022-12-01T07:16:33.864Z,100575.66
2022-12-01T07:21:35.430Z,100596.22
2022-12-01T07:26:37.071Z,100603.28
2022-12-01T07:31:39.203Z,100605.81
2022-12-01T07:36:40.918Z,100613.94
2022-12-01T07:41:42.593Z,100611.47
2022-12-01T07:46:44.207Z,100605.56
2022-12-01T07:51:45.943Z,100597.59
2022-12-01T07:56:47.534Z,100606.03
2022-12-01T08:01:49.164Z,100592.25
2022-12-01T08:06:50.769Z,100609.66
2022-12-01T08:11:52.447Z,100589.03
2022-12-01T08:16:54.159Z,100593.91
2022-12-01T08:21:55.963Z,100621.47
2022-12-01T08:26:57.626Z,100612.31
2022-12-01T08:31:59.398Z,100634.78
2022-12-01T08:37:00.947Z,100651.91
2022-12-01T08:42:02.542Z,100656.50
2022-12-01T08:47:04.266Z,100635.34
2022-12-01T08:52:05.907Z,100653.34
2022-12-01T08:57:07.706Z,100634.84
2022-12-01T09:02:14.568Z,100667.25
2022-12-01T09:07:20.276Z,100645.22
2022-12-01T09:12:28.415Z,100687.03
2022-12-01T09:17:30.061Z,100681.25
2022-12-01T09:22:31.666Z,100681.06
2022-12-01T09:27:33.253Z,100662.19
2022-12-01T09:32:34.839Z,100668.22
2022-12-01T09:37:36.551Z,100676.28
2022-12-01T09:42:38.600Z,100695.69
2022-12-01T09:47:42.646Z,100687.66
2022-12-01T09:52:50.503Z,100696.78
2022-12-01T09:57:55.131Z,100656.53
2022-12-01T10:02:59.479Z,100693.22
2022-12-01T10:08:05.755Z,100668.22
2022-12-01T10:13:24.053Z,100679.69
2022-12-01T10:18:41.904Z,100679.41
2022-12-01T10:23:53.535Z,100657.72
2022-12-01T10:29:23.318Z,100622.94
2022-12-01T10:34:38.731Z,100637.28
2022-12-01T10:39:44.550Z,100634.63
2022-12-01T10:44:47.278Z,100611.72
2022-12-01T10:49:49.538Z,100608.84
2022-12-01T10:54:51.358Z,100599.94
2022-12-01T10:59:57.890Z,100608.13
2022-12-01T11:06:12.653Z,100586.97
2022-12-01T11:11:25.638Z,100572.94
2022-12-01T11:16:39.943Z,100533.47
2022-12-01T11:21:48.557Z,100540.84
2022-12-01T11:26:50.212Z,100540.97
2022-12-01T11:31:53.238Z,100526.91
2022-12-01T11:36:58.388Z,100514.41
2022-12-01T11:42:06.281Z,100536.94
2022-12-01T11:47:26.018Z,100537.81
2022-12-01T11:52:32.048Z,100545.91
2022-12-01T12:03:15.618Z,100513.78
2022-12-01T12:09:07.784Z,100530.75
2022-12-01T12:14:35.931Z,100506.94
2022-12-01T12:20:06.221Z,100538.38
2022-12-01T12:25:04.978Z,100523.03
2022-12-01T12:30:21.150Z,100515.81
